createdAt,value
2019-04-23T00:01:49.354Z,100367.31
2019-04-23T00:04:21.409Z,100363.67
2019-04-23T00:07:04.056Z,100366.30
2019-04-23T00:11:52.432Z,100357.56
2019-04-23T00:14:29.954Z,100352.73
2019-04-23T00:16:59.180Z,100345.04
2019-04-23T00:19:25.854Z,100344.21
2019-04-23T00:21:58.530Z,100343.61
2019-04-23T00:25:25.660Z,100333.44
2019-04-23T00:30:03.917Z,100337.25
2019-04-23T00:32:28.824Z,100343.68
2019-04-23T00:34:54.727Z,100342.48
2019-04-23T00:37:25.464Z,100341.00
2019-04-23T00:39:54.768Z,100340.62
2019-04-23T00:42:34.343Z,100341.71
2019-04-23T00:44:51.500Z,100337.39
2019-04-23T00:47:25.624Z,100340.36
2019-04-23T00:50:02.103Z,100340.97
2019-04-23T00:54:58.013Z,100327.45
2019-04-23T00:57:24.216Z,100325.98
2019-04-23T01:00:02.004Z,100326.92
2019-04-23T01:02:25.824Z,100327.64
2019-04-23T01:04:56.136Z,100331.03
2019-04-23T01:07:24.674Z,100332.80
2019-04-23T01:10:10.585Z,100326.19
2019-04-23T01:12:39.742Z,100320.41
2019-04-23T01:15:04.692Z,100312.68
2019-04-23T01:17:51.121Z,100315.37
2019-04-23T01:20:09.745Z,100311.85
2019-04-23T01:22:21.075Z,100312.64
2019-04-23T01:25:09.717Z,100311.89
2019-04-23T01:28:25.272Z,100309.27
2019-04-23T01:33:27.155Z,100306.75
2019-04-23T01:36:03.078Z,100303.97
2019-04-23T01:38:21.936Z,100303.08
2019-04-23T01:40:45.700Z,100304.45
2019-04-23T01:43:16.289Z,100308.89
2019-04-23T01:45:44.372Z,100307.27
2019-04-23T01:48:22.469Z,100300.98
2019-04-23T01:53:22.664Z,100297.78
2019-04-23T01:55:46.895Z,100287.73
2019-04-23T02:00:47.565Z,100282.22
2019-04-23T02:03:21.204Z,100278.30
2019-04-23T02:05:51.269Z,100284.31
2019-04-23T02:08:32.202Z,100280.28
2019-04-23T02:11:02.968Z,100282.08
2019-04-23T02:13:28.086Z,100280.06
2019-04-23T02:15:47.747Z,100275.42
2019-04-23T02:20:53.697Z,100266.73
2019-04-23T02:23:33.143Z,100268.48
2019-04-23T02:26:18.715Z,100263.02
2019-04-23T02:28:32.972Z,100268.80
2019-04-23T02:36:08.327Z,100260.16
2019-04-23T02:43:59.590Z,100245.58
2019-04-23T02:51:10.784Z,100242.42
2019-04-23T02:56:23.716Z,100228.98
2019-04-23T03:03:42.736Z,100225.73
2019-04-23T03:06:09.652Z,100222.88
2019-04-23T03:08:44.214Z,100224.73
2019-04-23T03:13:51.185Z,100217.70
2019-04-23T03:16:33.892Z,100216.22
2019-04-23T03:21:52.856Z,100221.39
2019-04-23T03:27:11.021Z,100209.26
2019-04-23T03:29:35.404Z,100217.77
2019-04-23T03:35:08.738Z,100213.77
2019-04-23T03:39:40.392Z,100204.63
2019-04-23T03:41:59.653Z,100201.25
2019-04-23T03:44:29.750Z,100206.29
2019-04-23T03:49:32.539Z,100201.40
2019-04-23T03:52:07.423Z,100194.85
2019-04-23T04:09:35.970Z,100184.81
2019-04-23T04:11:54.933Z,100189.70
2019-04-23T04:19:32.418Z,100176.23
2019-04-23T04:22:04.766Z,100179.50
2019-04-23T04:24:36.830Z,100187.53
2019-04-23T04:32:00.560Z,100172.10
2019-04-23T04:37:27.650Z,100173.06
2019-04-23T04:39:29.368Z,100172.13
2019-04-23T04:42:08.753Z,100170.14
2019-04-23T04:47:05.360Z,100180.13
2019-04-23T04:49:36.475Z,100174.59
2019-04-23T04:59:22.723Z,100168.66
2019-04-23T05:02:01.168Z,100173.17
2019-04-23T05:04:37.920Z,100165.65
2019-04-23T05:09:36.306Z,100170.89
2019-04-23T05:12:01.404Z,100167.11
2019-04-23T05:14:33.381Z,100162.89
2019-04-23T05:22:02.928Z,100167.94
2019-04-23T05:26:49.089Z,100158.91
2019-04-23T05:29:14.959Z,100161.27
2019-04-23T05:31:49.690Z,100163.41
2019-04-23T05:34:23.965Z,100163.12
2019-04-23T05:36:58.368Z,100159.63
2019-04-23T05:39:30.922Z,100156.02
2019-04-23T05:42:04.362Z,100154.96
2019-04-23T05:44:41.689Z,100150.55
2019-04-23T05:46:52.175Z,100150.92
2019-04-23T05:49:27.897Z,100149.88
2019-04-23T05:52:10.905Z,100155.19
2019-04-23T05:54:27.728Z,100151.89
2019-04-23T05:56:53.434Z,100143.68
2019-04-23T05:59:26.174Z,100151.97
2019-04-23T06:04:29.285Z,100143.69
2019-04-23T06:07:08.748Z,100140.98
2019-04-23T06:09:25.176Z,100142.56
2019-04-23T06:14:32.843Z,100137.12
2019-04-23T06:17:21.301Z,100137.59
2019-04-23T06:19:20.803Z,100135.77
2019-04-23T06:22:18.458Z,100131.30
2019-04-23T06:24:28.950Z,100129.48
2019-04-23T06:27:01.237Z,100130.71
2019-04-23T06:29:39.650Z,100135.17
2019-04-23T06:31:55.369Z,100134.41
2019-04-23T06:34:31.459Z,100132.56
2019-04-23T06:36:58.789Z,100132.98
2019-04-23T06:39:28.655Z,100121.70
2019-04-23T06:41:54.802Z,100131.44
2019-04-23T06:49:30.723Z,100122.80
2019-04-23T06:52:08.281Z,100121.89
2019-04-23T06:54:35.889Z,100125.02
2019-04-23T06:57:08.801Z,100120.27
2019-04-23T07:09:28.683Z,100112.41
2019-04-23T07:14:33.876Z,100103.86
2019-04-23T07:16:52.616Z,100102.02
2019-04-23T07:22:03.313Z,100099.45
2019-04-23T07:24:24.531Z,100097.89
2019-04-23T07:26:45.470Z,100089.34
2019-04-23T07:29:25.062Z,100095.13
2019-04-23T07:34:26.476Z,100088.16
2019-04-23T07:36:53.712Z,100090.23
2019-04-23T07:39:55.897Z,100079.94
2019-04-23T07:42:24.722Z,100082.95
2019-04-23T07:45:33.031Z,100080.22
2019-04-23T07:48:13.697Z,100074.09
2019-04-23T07:53:18.752Z,100075.55
2019-04-23T08:05:39.610Z,100062.94
2019-04-23T08:11:01.588Z,100054.09
2019-04-23T08:13:24.251Z,100053.52
2019-04-23T08:15:46.747Z,100046.59
2019-04-23T08:18:18.024Z,100046.19
2019-04-23T08:20:52.329Z,100048.92
2019-04-23T08:23:38.221Z,100047.14
2019-04-23T08:29:03.610Z,100044.02
2019-04-23T08:31:36.408Z,100037.03
2019-04-23T08:34:11.034Z,100038.89
2019-04-23T08:38:57.597Z,100029.61
2019-04-23T08:41:33.682Z,100027.94
2019-04-23T08:43:59.427Z,100031.38
2019-04-23T08:46:57.047Z,100027.55
2019-04-23T08:49:22.783Z,100014.53
2019-04-23T08:51:53.334Z,100016.52
2019-04-23T08:54:29.766Z,100019.84
2019-04-23T08:56:58.057Z,100018.97
2019-04-23T08:59:28.107Z,100009.81
2019-04-23T09:02:10.472Z,100010.23
2019-04-23T09:04:23.958Z,100006.83
2019-04-23T09:06:53.436Z,100001.82
2019-04-23T09:09:21.910Z,100006.44
2019-04-23T09:11:58.139Z,100002.45
2019-04-23T09:14:07.337Z,99995.02
2019-04-23T09:16:52.613Z,99993.09
2019-04-23T09:19:23.852Z,99986.41
2019-04-23T09:21:49.693Z,99983.74
2019-04-23T09:24:22.385Z,99987.20
2019-04-23T09:26:51.636Z,99984.81
2019-04-23T09:29:23.045Z,99977.42
2019-04-23T09:34:54.473Z,99965.81
2019-04-23T09:37:54.559Z,99962.27
2019-04-23T09:41:15.720Z,99960.16
2019-04-23T09:43:48.349Z,99954.71
2019-04-23T09:46:45.206Z,99955.27
2019-04-23T09:51:49.348Z,99938.90
2019-04-23T09:56:47.329Z,99940.42
2019-04-23T09:59:31.023Z,99933.17
2019-04-23T10:01:40.889Z,99937.91
2019-04-23T10:03:56.831Z,99932.45
2019-04-23T10:06:22.620Z,99935.15
2019-04-23T10:08:51.972Z,99938.22
2019-04-23T10:11:17.770Z,99927.88
2019-04-23T10:13:45.760Z,99927.25
2019-04-23T10:16:17.124Z,99931.56
2019-04-23T10:18:44.922Z,99925.14
2019-04-23T10:21:13.151Z,99917.37
2019-04-23T10:23:43.354Z,99921.53
2019-04-23T10:26:12.228Z,99918.89
2019-04-23T10:29:00.107Z,99916.20
2019-04-23T10:31:28.378Z,99909.96
2019-04-23T10:33:57.802Z,99910.79
2019-04-23T10:36:29.529Z,99905.92
2019-04-23T10:39:02.316Z,99908.31
2019-04-23T10:41:25.881Z,99905.70
2019-04-23T10:44:11.080Z,99903.13
2019-04-23T10:47:15.016Z,99907.15
2019-04-23T10:52:36.353Z,99906.09
2019-04-23T10:55:09.096Z,99910.50
2019-04-23T10:57:22.073Z,99895.41
2019-04-23T10:59:49.004Z,99892.58
2019-04-23T11:04:57.569Z,99890.73
2019-04-23T11:12:46.671Z,99882.67
2019-04-23T11:15:38.318Z,99884.56
2019-04-23T11:22:56.841Z,99875.42
2019-04-23T11:27:52.134Z,99865.89
2019-04-23T11:30:29.355Z,99860.77
2019-04-23T11:32:56.466Z,99860.05
2019-04-23T11:35:34.575Z,99863.59
2019-04-23T11:40:21.044Z,99858.57
2019-04-23T11:42:57.995Z,99856.55
2019-04-23T11:45:50.660Z,99851.25
2019-04-23T11:50:27.878Z,99844.34
2019-04-23T11:55:37.526Z,99842.24
2019-04-23T11:58:00.777Z,99838.95
2019-04-23T12:00:25.764Z,99832.83
2019-04-23T12:03:19.426Z,99834.63
2019-04-23T12:06:25.019Z,99832.17
2019-04-23T12:08:57.028Z,99836.14
2019-04-23T12:14:32.729Z,99829.23
2019-04-23T12:17:09.659Z,99825.69
2019-04-23T12:22:01.458Z,99822.56
2019-04-23T12:24:50.385Z,99822.27
2019-04-23T12:29:31.920Z,99812.66
2019-04-23T12:32:23.934Z,99809.66
2019-04-23T12:37:14.841Z,99806.05
2019-04-23T12:39:42.471Z,99808.91
2019-04-23T12:42:34.334Z,99795.66
2019-04-23T12:44:51.691Z,99797.66
2019-04-23T12:47:25.471Z,99796.23
2019-04-23T12:52:19.673Z,99787.89
2019-04-23T12:57:17.517Z,99783.20
2019-04-23T12:59:47.637Z,99782.94
2019-04-23T13:04:49.783Z,99780.00
2019-04-23T13:07:17.216Z,99784.12
2019-04-23T13:10:06.390Z,99776.05
2019-04-23T13:12:30.746Z,99777.45
2019-04-23T13:14:52.236Z,99780.91
2019-04-23T13:20:00.138Z,99771.28
2019-04-23T13:22:23.445Z,99770.22
2019-04-23T13:25:03.531Z,99767.67
2019-04-23T13:27:49.614Z,99768.22
2019-04-23T13:30:21.186Z,99767.83
2019-04-23T13:32:50.272Z,99763.55
2019-04-23T13:35:32.207Z,99755.54
2019-04-23T13:38:10.391Z,99758.46
2019-04-23T13:40:17.655Z,99756.07
2019-04-23T13:42:45.125Z,99753.53
2019-04-23T13:45:28.977Z,99748.52
2019-04-23T13:47:53.335Z,99746.70
2019-04-23T13:50:24.846Z,99745.51
2019-04-23T14:00:22.642Z,99737.44
2019-04-23T14:02:46.112Z,99734.81
2019-04-23T14:05:21.866Z,99740.67
2019-04-23T14:07:56.915Z,99732.14
2019-04-23T14:10:31.144Z,99734.44
2019-04-23T14:13:08.234Z,99727.93
2019-04-23T14:18:19.659Z,99728.41
2019-04-23T14:20:30.194Z,99730.28
2019-04-23T14:23:08.235Z,99721.13
2019-04-23T14:25:36.025Z,99717.26
2019-04-23T14:28:05.832Z,99712.17
2019-04-23T14:33:03.659Z,99708.21
2019-04-23T14:38:15.791Z,99709.36
2019-04-23T14:40:39.612Z,99711.23
2019-04-23T14:43:13.953Z,99705.69
2019-04-23T14:48:08.886Z,99700.16
2019-04-23T14:58:18.069Z,99684.06
2019-04-23T15:00:41.359Z,99690.82
2019-04-23T15:05:45.920Z,99686.77
2019-04-23T15:08:15.320Z,99685.31
2019-04-23T15:15:45.423Z,99676.65
2019-04-23T15:18:35.245Z,99683.55
2019-04-23T15:21:34.126Z,99685.30
2019-04-23T15:23:58.320Z,99684.28
2019-04-23T15:26:47.938Z,99688.14
2019-04-23T15:28:10.934Z,99684.13
2019-04-23T15:31:10.307Z,99686.00
2019-04-23T15:36:23.913Z,99682.33
2019-04-23T15:38:43.444Z,99677.54
2019-04-23T15:41:15.459Z,99675.91
2019-04-23T15:43:41.167Z,99672.96
2019-04-23T15:46:21.644Z,99677.16
2019-04-23T15:48:52.845Z,99668.02
2019-04-23T15:51:24.376Z,99666.31
2019-04-23T15:53:44.710Z,99665.20
2019-04-23T15:56:18.782Z,99666.70
2019-04-23T15:58:53.682Z,99670.64
2019-04-23T16:03:22.180Z,99665.44
2019-04-23T16:05:51.059Z,99662.49
2019-04-23T16:08:59.672Z,99659.06
2019-04-23T16:11:33.518Z,99655.68
2019-04-23T16:16:29.997Z,99658.92
2019-04-23T16:19:22.046Z,99657.46
2019-04-23T16:21:54.641Z,99660.32
2019-04-23T16:24:17.986Z,99652.39
2019-04-23T16:26:55.838Z,99652.02
2019-04-23T16:29:48.851Z,99649.44
2019-04-23T16:31:46.375Z,99643.16
2019-04-23T16:34:29.232Z,99645.17
2019-04-23T16:39:31.421Z,99641.39
2019-04-23T16:42:08.813Z,99642.81
2019-04-23T16:44:48.224Z,99640.75
2019-04-23T16:47:14.486Z,99644.53
2019-04-23T16:49:58.265Z,99651.18
2019-04-23T16:52:09.610Z,99655.27
2019-04-23T16:54:53.542Z,99650.63
2019-04-23T17:04:38.984Z,99652.49
2019-04-23T17:09:44.572Z,99653.39
2019-04-23T17:12:09.001Z,99649.43
2019-04-23T17:14:42.338Z,99647.17
2019-04-23T17:17:06.478Z,99648.26
2019-04-23T17:22:11.311Z,99644.98
2019-04-23T17:24:40.491Z,99647.44
2019-04-23T17:27:19.810Z,99645.38
2019-04-23T17:29:41.726Z,99646.30
2019-04-23T17:32:17.481Z,99640.16
2019-04-23T17:35:05.101Z,99636.73
2019-04-23T17:37:26.808Z,99644.14
2019-04-23T17:40:08.626Z,99644.59
2019-04-23T17:42:44.006Z,99649.28
2019-04-23T17:47:57.555Z,99649.11
2019-04-23T17:50:28.763Z,99659.92
2019-04-23T17:52:56.260Z,99660.88
2019-04-23T17:55:22.238Z,99659.23
2019-04-23T17:57:59.025Z,99667.67
2019-04-23T18:00:40.518Z,99666.44
2019-04-23T18:02:59.123Z,99666.72
2019-04-23T18:05:40.832Z,99662.56
2019-04-23T18:10:27.204Z,99659.83
2019-04-23T18:13:02.116Z,99657.13
2019-04-23T18:17:54.687Z,99657.86
2019-04-23T18:20:52.190Z,99660.04
2019-04-23T18:23:09.884Z,99661.28
2019-04-23T18:25:51.656Z,99662.27
2019-04-23T18:28:17.281Z,99665.65
2019-04-23T18:31:11.083Z,99658.22
2019-04-23T18:36:08.210Z,99666.81
2019-04-23T18:38:42.853Z,99662.86
2019-04-23T18:43:46.638Z,99669.20
2019-04-23T18:46:18.665Z,99666.92
2019-04-23T19:01:13.942Z,99664.56
2019-04-23T19:04:20.067Z,99664.91
2019-04-23T19:06:45.354Z,99663.23
2019-04-23T19:10:07.591Z,99674.50
2019-04-23T19:12:34.798Z,99683.44
2019-04-23T19:19:55.559Z,99687.36
2019-04-23T19:22:29.224Z,99685.33
2019-04-23T19:24:59.435Z,99682.83
2019-04-23T19:27:35.245Z,99686.11
2019-04-23T19:30:09.333Z,99677.31
2019-04-23T19:32:41.527Z,99681.91
2019-04-23T19:35:06.500Z,99681.75
2019-04-23T19:37:49.045Z,99684.23
2019-04-23T19:40:00.860Z,99688.03
2019-04-23T19:42:44.803Z,99685.00
2019-04-23T19:45:04.870Z,99681.95
2019-04-23T19:47:53.590Z,99680.50
2019-04-23T19:50:03.745Z,99680.03
2019-04-23T19:52:59.472Z,99681.01
2019-04-23T19:55:12.502Z,99684.59
2019-04-23T19:57:42.677Z,99686.40
2019-04-23T20:00:13.891Z,99681.08
2019-04-23T20:03:01.603Z,99685.22
2019-04-23T20:05:07.144Z,99690.52
2019-04-23T20:07:46.242Z,99685.67
2019-04-23T20:10:05.417Z,99682.36
2019-04-23T20:12:42.875Z,99684.00
2019-04-23T20:14:59.999Z,99684.94
2019-04-23T20:20:14.519Z,99685.59
2019-04-23T20:22:48.501Z,99686.39
2019-04-23T20:25:46.374Z,99685.70
2019-04-23T20:27:42.286Z,99688.86
2019-04-23T20:30:32.476Z,99679.38
2019-04-23T20:33:51.996Z,99678.38
2019-04-23T20:35:33.183Z,99675.38
2019-04-23T20:40:50.841Z,99677.62
2019-04-23T20:43:09.822Z,99682.45
2019-04-23T20:48:09.344Z,99672.27
2019-04-23T20:50:39.640Z,99673.56
2019-04-23T20:53:08.929Z,99677.84
2019-04-23T20:55:54.630Z,99674.64
2019-04-23T20:58:31.585Z,99676.05
2019-04-23T21:06:18.914Z,99668.48
2019-04-23T21:11:14.786Z,99670.70
2019-04-23T21:16:13.148Z,99681.41
2019-04-23T21:21:17.964Z,99672.03
2019-04-23T21:23:50.247Z,99667.67
2019-04-23T21:26:10.625Z,99669.27
2019-04-23T21:28:47.399Z,99669.38
2019-04-23T21:31:18.949Z,99670.16
2019-04-23T21:36:49.358Z,99677.84
2019-04-23T21:39:54.094Z,99666.36
2019-04-23T21:42:35.649Z,99665.77
2019-04-23T21:45:02.215Z,99667.73
2019-04-23T21:47:42.581Z,99668.84
2019-04-23T21:50:12.292Z,99670.78
2019-04-23T21:52:25.233Z,99672.30
2019-04-23T21:54:58.497Z,99673.33
2019-04-23T21:57:35.393Z,99674.59
2019-04-23T21:59:55.547Z,99677.33
2019-04-23T22:02:33.694Z,99674.64
2019-04-23T22:05:17.318Z,99676.05
2019-04-23T22:07:42.017Z,99673.63
2019-04-23T22:10:02.556Z,99671.13
2019-04-23T22:13:00.057Z,99672.13
2019-04-23T22:20:06.009Z,99668.67
2019-04-23T22:22:34.296Z,99668.00
2019-04-23T22:25:00.889Z,99670.29
2019-04-23T22:27:28.271Z,99668.00
2019-04-23T22:30:02.028Z,99670.94
2019-04-23T22:32:40.154Z,99669.61
2019-04-23T22:35:00.431Z,99670.66
2019-04-23T22:37:40.516Z,99669.70
2019-04-23T22:39:58.876Z,99679.09
2019-04-23T22:42:54.544Z,99671.52
2019-04-23T22:47:33.703Z,99668.47
2019-04-23T22:52:48.866Z,99669.09
2019-04-23T22:55:02.171Z,99670.32
2019-04-23T22:57:56.450Z,99670.11
2019-04-23T23:00:16.466Z,99667.27
2019-04-23T23:03:06.335Z,99665.73
2019-04-23T23:08:10.744Z,99664.50
2019-04-23T23:10:37.721Z,99664.97
2019-04-23T23:13:04.051Z,99672.56
2019-04-23T23:20:57.477Z,99672.88
2019-04-23T23:23:13.227Z,99675.66
2019-04-23T23:25:33.405Z,99670.03
2019-04-23T23:28:12.079Z,99670.33
2019-04-23T23:30:37.716Z,99670.47
2019-04-23T23:33:17.293Z,99673.53
2019-04-23T23:35:35.287Z,99674.91
2019-04-23T23:38:11.604Z,99680.75
2019-04-23T23:40:35.408Z,99680.60
2019-04-23T23:43:12.646Z,99679.17
2019-04-23T23:48:06.673Z,99678.93
2019-04-23T23:50:51.537Z,99681.92
2019-04-23T23:53:18.466Z,99680.75
2019-04-23T23:55:45.613Z,99680.39
2019-04-23T23:58:14.962Z,99678.38
